sensor_id;sensor_type;location;lat;lon;timestamp;pressure;altitude;pressure_sealevel;temperature;humidity
69127;BME280;56688;50.234;19.292;2022-10-31T00:01:14;98922.67;;;9.34;79.98
69127;BME280;56688;50.234;19.292;2022-10-31T00:03:41;98922.26;;;9.32;79.70
69127;BME280;56688;50.234;19.292;2022-10-31T00:06:08;98921.67;;;9.22;79.71
69127;BME280;56688;50.234;19.292;2022-10-31T00:08:36;98925.96;;;9.16;79.93
69127;BME280;56688;50.234;19.292;2022-10-31T00:11:02;98923.77;;;9.09;79.84
69127;BME280;56688;50.234;19.292;2022-10-31T00:13:29;98923.81;;;9.02;79.64
69127;BME280;56688;50.234;19.292;2022-10-31T00:15:56;98928.70;;;8.96;79.37
69127;BME280;56688;50.234;19.292;2022-10-31T00:18:23;98927.27;;;8.91;79.43
69127;BME280;56688;50.234;19.292;2022-10-31T00:20:58;98929.17;;;8.85;79.27
69127;BME280;56688;50.234;19.292;2022-10-31T00:23:25;98930.14;;;8.79;79.50
69127;BME280;56688;50.234;19.292;2022-10-31T00:25:52;98928.41;;;8.74;79.82
69127;BME280;56688;50.234;19.292;2022-10-31T00:28:18;98927.61;;;8.67;79.91
69127;BME280;56688;50.234;19.292;2022-10-31T00:30:50;98932.10;;;8.61;80.42
69127;BME280;56688;50.234;19.292;2022-10-31T00:33:16;98932.02;;;8.57;80.67
69127;BME280;56688;50.234;19.292;2022-10-31T00:35:49;98930.77;;;8.54;80.41
69127;BME280;56688;50.234;19.292;2022-10-31T00:38:16;98931.05;;;8.51;80.48
69127;BME280;56688;50.234;19.292;2022-10-31T00:40:43;98932.80;;;8.48;80.32
69127;BME280;56688;50.234;19.292;2022-10-31T00:43:10;98931.61;;;8.45;79.88
69127;BME280;56688;50.234;19.292;2022-10-31T00:45:42;98934.52;;;8.41;79.93
69127;BME280;56688;50.234;19.292;2022-10-31T00:48:10;98932.11;;;8.35;79.64
69127;BME280;56688;50.234;19.292;2022-10-31T00:50:37;98933.64;;;8.27;79.28
69127;BME280;56688;50.234;19.292;2022-10-31T00:53:03;98931.20;;;8.20;79.55
69127;BME280;56688;50.234;19.292;2022-10-31T00:55:30;98934.21;;;8.15;79.99
69127;BME280;56688;50.234;19.292;2022-10-31T00:57:57;98934.98;;;8.11;80.46
69127;BME280;56688;50.234;19.292;2022-10-31T01:00:25;98934.09;;;8.09;80.40
69127;BME280;56688;50.234;19.292;2022-10-31T01:02:52;98945.09;;;8.07;80.94
69127;BME280;56688;50.234;19.292;2022-10-31T01:05:19;98941.45;;;8.07;80.61
69127;BME280;56688;50.234;19.292;2022-10-31T01:07:46;98940.20;;;8.05;81.09
69127;BME280;56688;50.234;19.292;2022-10-31T01:10:13;98941.34;;;8.01;80.96
69127;BME280;56688;50.234;19.292;2022-10-31T01:12:43;98947.56;;;7.99;80.85
69127;BME280;56688;50.234;19.292;2022-10-31T01:15:12;98944.52;;;7.95;80.44
69127;BME280;56688;50.234;19.292;2022-10-31T01:17:40;98946.41;;;7.92;79.89
69127;BME280;56688;50.234;19.292;2022-10-31T01:20:11;98945.62;;;7.89;79.57
69127;BME280;56688;50.234;19.292;2022-10-31T01:22:38;98947.27;;;7.85;79.46
69127;BME280;56688;50.234;19.292;2022-10-31T01:25:06;98944.52;;;7.81;79.26
69127;BME280;56688;50.234;19.292;2022-10-31T01:27:33;98941.75;;;7.75;79.25
69127;BME280;56688;50.234;19.292;2022-10-31T01:30:00;98940.02;;;7.68;79.24
69127;BME280;56688;50.234;19.292;2022-10-31T01:32:27;98940.69;;;7.62;79.27
69127;BME280;56688;50.234;19.292;2022-10-31T01:34:57;98941.27;;;7.56;79.59
69127;BME280;56688;50.234;19.292;2022-10-31T01:37:24;98944.27;;;7.51;79.81
69127;BME280;56688;50.234;19.292;2022-10-31T01:39:50;98941.30;;;7.47;80.07
69127;BME280;56688;50.234;19.292;2022-10-31T01:42:20;98937.08;;;7.45;80.33
69127;BME280;56688;50.234;19.292;2022-10-31T01:44:52;98940.92;;;7.44;80.47
69127;BME280;56688;50.234;19.292;2022-10-31T01:50:13;98938.17;;;7.40;80.76
69127;BME280;56688;50.234;19.292;2022-10-31T01:52:45;98933.73;;;7.36;80.73
69127;BME280;56688;50.234;19.292;2022-10-31T01:55:20;98932.77;;;7.35;81.14
69127;BME280;56688;50.234;19.292;2022-10-31T01:57:57;98932.48;;;7.37;81.34
69127;BME280;56688;50.234;19.292;2022-10-31T02:00:26;98931.69;;;7.39;81.45
69127;BME280;56688;50.234;19.292;2022-10-31T02:02:53;98939.70;;;7.40;81.68
69127;BME280;56688;50.234;19.292;2022-10-31T02:05:25;98933.35;;;7.40;81.80
69127;BME280;56688;50.234;19.292;2022-10-31T02:08:12;98931.59;;;7.40;81.90
69127;BME280;56688;50.234;19.292;2022-10-31T02:10:42;98934.25;;;7.40;82.10
69127;BME280;56688;50.234;19.292;2022-10-31T02:13:10;98934.56;;;7.42;82.47
69127;BME280;56688;50.234;19.292;2022-10-31T02:15:47;98933.62;;;7.44;82.95
69127;BME280;56688;50.234;19.292;2022-10-31T02:18:17;98932.43;;;7.49;83.00
69127;BME280;56688;50.234;19.292;2022-10-31T02:20:55;98928.17;;;7.52;83.18
69127;BME280;56688;50.234;19.292;2022-10-31T02:34:31;98935.47;;;7.61;82.79
69127;BME280;56688;50.234;19.292;2022-10-31T02:37:12;98934.77;;;7.64;83.08
69127;BME280;56688;50.234;19.292;2022-10-31T02:42:34;98944.80;;;7.68;82.96
69127;BME280;56688;50.234;19.292;2022-10-31T02:45:13;98946.31;;;7.71;82.82
69127;BME280;56688;50.234;19.292;2022-10-31T02:47:41;98952.33;;;7.71;82.74
69127;BME280;56688;50.234;19.292;2022-10-31T02:50:17;98950.00;;;7.71;82.90
69127;BME280;56688;50.234;19.292;2022-10-31T02:52:50;98950.27;;;7.73;82.94
69127;BME280;56688;50.234;19.292;2022-10-31T02:58:01;98953.82;;;7.80;82.91
69127;BME280;56688;50.234;19.292;2022-10-31T03:00:31;98953.98;;;7.82;82.59
69127;BME280;56688;50.234;19.292;2022-10-31T03:05:55;98955.10;;;7.81;81.74
69127;BME280;56688;50.234;19.292;2022-10-31T03:08:34;98958.23;;;7.77;80.95
69127;BME280;56688;50.234;19.292;2022-10-31T03:11:06;98965.36;;;7.68;80.70
69127;BME280;56688;50.234;19.292;2022-10-31T03:13:49;98961.73;;;7.62;80.74
69127;BME280;56688;50.234;19.292;2022-10-31T03:16:37;98960.20;;;7.56;80.89
69127;BME280;56688;50.234;19.292;2022-10-31T03:19:11;98966.04;;;7.55;80.92
69127;BME280;56688;50.234;19.292;2022-10-31T03:21:45;98966.59;;;7.51;80.71
69127;BME280;56688;50.234;19.292;2022-10-31T03:24:15;98963.48;;;7.48;80.53
69127;BME280;56688;50.234;19.292;2022-10-31T03:26:46;98963.55;;;7.44;80.24
69127;BME280;56688;50.234;19.292;2022-10-31T03:29:16;98959.86;;;7.39;80.57
69127;BME280;56688;50.234;19.292;2022-10-31T03:31:49;98960.75;;;7.32;80.30
69127;BME280;56688;50.234;19.292;2022-10-31T03:34:18;98963.49;;;7.26;80.41
69127;BME280;56688;50.234;19.292;2022-10-31T03:36:48;98966.18;;;7.20;80.10
69127;BME280;56688;50.234;19.292;2022-10-31T03:39:19;98961.71;;;7.17;80.58
69127;BME280;56688;50.234;19.292;2022-10-31T03:41:54;98966.42;;;7.15;80.07
69127;BME280;56688;50.234;19.292;2022-10-31T03:44:26;98966.84;;;7.10;80.06
69127;BME280;56688;50.234;19.292;2022-10-31T03:46:59;98970.41;;;7.03;79.87
69127;BME280;56688;50.234;19.292;2022-10-31T03:49:27;98970.67;;;6.99;79.87
69127;BME280;56688;50.234;19.292;2022-10-31T03:52:02;98977.63;;;6.93;80.10
69127;BME280;56688;50.234;19.292;2022-10-31T03:54:40;98978.23;;;6.87;80.12
69127;BME280;56688;50.234;19.292;2022-10-31T03:57:16;98981.52;;;6.83;80.13
69127;BME280;56688;50.234;19.292;2022-10-31T03:59:51;98981.13;;;6.79;79.97
69127;BME280;56688;50.234;19.292;2022-10-31T04:02:22;98983.06;;;6.76;79.85
69127;BME280;56688;50.234;19.292;2022-10-31T04:04:53;98987.34;;;6.72;79.42
69127;BME280;56688;50.234;19.292;2022-10-31T04:07:20;98985.72;;;6.69;79.80
69127;BME280;56688;50.234;19.292;2022-10-31T04:09:50;98985.14;;;6.64;79.52
69127;BME280;56688;50.234;19.292;2022-10-31T04:12:20;98989.08;;;6.56;79.43
69127;BME280;56688;50.234;19.292;2022-10-31T04:15:03;98985.23;;;6.51;79.67
69127;BME280;56688;50.234;19.292;2022-10-31T04:17:35;98991.63;;;6.47;80.04
69127;BME280;56688;50.234;19.292;2022-10-31T04:20:05;98991.73;;;6.44;80.09
69127;BME280;56688;50.234;19.292;2022-10-31T04:22:32;98987.30;;;6.42;79.64
69127;BME280;56688;50.234;19.292;2022-10-31T04:24:59;98991.84;;;6.41;79.82
69127;BME280;56688;50.234;19.292;2022-10-31T04:27:26;98991.38;;;6.38;79.81
69127;BME280;56688;50.234;19.292;2022-10-31T04:29:53;98993.77;;;6.35;79.25
69127;BME280;56688;50.234;19.292;2022-10-31T04:32:20;98995.88;;;6.30;79.36
69127;BME280;56688;50.234;19.292;2022-10-31T04:34:47;98997.90;;;6.22;79.64
69127;BME280;56688;50.234;19.292;2022-10-31T04:37:14;98994.73;;;6.15;79.83
69127;BME280;56688;50.234;19.292;2022-10-31T04:39:40;98997.46;;;6.10;79.88
69127;BME280;56688;50.234;19.292;2022-10-31T04:42:23;98994.09;;;6.07;80.02
69127;BME280;56688;50.234;19.292;2022-10-31T04:44:50;98996.27;;;6.04;80.60
69127;BME280;56688;50.234;19.292;2022-10-31T04:47:17;98996.84;;;6.05;80.57
69127;BME280;56688;50.234;19.292;2022-10-31T04:49:44;98998.35;;;6.05;80.31
69127;BME280;56688;50.234;19.292;2022-10-31T04:52:11;98998.36;;;6.03;80.51
69127;BME280;56688;50.234;19.292;2022-10-31T04:54:39;98997.11;;;5.99;80.50
69127;BME280;56688;50.234;19.292;2022-10-31T04:57:21;98994.45;;;5.96;80.57
69127;BME280;56688;50.234;19.292;2022-10-31T04:59:48;98993.39;;;5.94;80.56
69127;BME280;56688;50.234;19.292;2022-10-31T05:02:15;98998.77;;;5.91;80.97
69127;BME280;56688;50.234;19.292;2022-10-31T05:04:49;98994.63;;;5.88;81.64
69127;BME280;56688;50.234;19.292;2022-10-31T05:07:16;98991.67;;;5.82;81.60
69127;BME280;56688;50.234;19.292;2022-10-31T05:09:43;98993.98;;;5.76;82.40
69127;BME280;56688;50.234;19.292;2022-10-31T05:12:11;98988.23;;;5.70;83.29
69127;BME280;56688;50.234;19.292;2022-10-31T05:14:58;98994.83;;;5.69;83.31
69127;BME280;56688;50.234;19.292;2022-10-31T05:17:45;98992.80;;;5.72;82.99
69127;BME280;56688;50.234;19.292;2022-10-31T05:20:14;98989.63;;;5.73;83.23
69127;BME280;56688;50.234;19.292;2022-10-31T05:23:01;98999.54;;;5.70;82.43
69127;BME280;56688;50.234;19.292;2022-10-31T05:25:28;99004.39;;;5.56;83.03
69127;BME280;56688;50.234;19.292;2022-10-31T05:27:56;99004.45;;;5.49;84.32
69127;BME280;56688;50.234;19.292;2022-10-31T05:30:26;99006.79;;;5.45;84.56
69127;BME280;56688;50.234;19.292;2022-10-31T05:32:54;99008.42;;;5.47;85.11
69127;BME280;56688;50.234;19.292;2022-10-31T05:35:41;99011.36;;;5.53;85.01
69127;BME280;56688;50.234;19.292;2022-10-31T05:38:23;99012.79;;;5.51;84.37
69127;BME280;56688;50.234;19.292;2022-10-31T05:40:50;99014.55;;;5.47;84.59
69127;BME280;56688;50.234;19.292;2022-10-31T05:43:20;99016.59;;;5.48;84.88
69127;BME280;56688;50.234;19.292;2022-10-31T05:45:52;99019.64;;;5.46;85.41
69127;BME280;56688;50.234;19.292;2022-10-31T05:48:39;99016.91;;;5.45;85.53
69127;BME280;56688;50.234;19.292;2022-10-31T05:51:25;99020.64;;;5.50;85.49
69127;BME280;56688;50.234;19.292;2022-10-31T05:53:52;99025.83;;;5.59;85.58
69127;BME280;56688;50.234;19.292;2022-10-31T05:56:19;99028.56;;;5.66;85.31
69127;BME280;56688;50.234;19.292;2022-10-31T05:58:46;99030.05;;;5.65;85.05
69127;BME280;56688;50.234;19.292;2022-10-31T06:01:13;99030.58;;;5.62;85.18
69127;BME280;56688;50.234;19.292;2022-10-31T06:03:40;99031.52;;;5.61;84.72
69127;BME280;56688;50.234;19.292;2022-10-31T06:06:08;99032.36;;;5.57;85.23
69127;BME280;56688;50.234;19.292;2022-10-31T06:08:37;99034.44;;;5.63;85.45
69127;BME280;56688;50.234;19.292;2022-10-31T06:11:06;99034.23;;;5.75;85.61
69127;BME280;56688;50.234;19.292;2022-10-31T06:13:48;99034.92;;;5.90;85.83
69127;BME280;56688;50.234;19.292;2022-10-31T06:16:20;99038.85;;;5.95;85.08
69127;BME280;56688;50.234;19.292;2022-10-31T06:18:48;99038.73;;;6.00;84.92
69127;BME280;56688;50.234;19.292;2022-10-31T06:21:15;99043.27;;;6.04;85.24
69127;BME280;56688;50.234;19.292;2022-10-31T06:23:45;99040.88;;;6.07;85.56
69127;BME280;56688;50.234;19.292;2022-10-31T06:26:27;99046.01;;;6.21;86.48
69127;BME280;56688;50.234;19.292;2022-10-31T06:28:53;99046.72;;;6.38;86.30
69127;BME280;56688;50.234;19.292;2022-10-31T06:31:43;99042.02;;;6.60;85.88
69127;BME280;56688;50.234;19.292;2022-10-31T06:34:10;99045.25;;;6.72;85.34
69127;BME280;56688;50.234;19.292;2022-10-31T06:36:37;99046.38;;;6.80;85.06
69127;BME280;56688;50.234;19.292;2022-10-31T06:39:04;99044.60;;;6.89;85.37
69127;BME280;56688;50.234;19.292;2022-10-31T06:41:31;99051.36;;;7.09;86.00
69127;BME280;56688;50.234;19.292;2022-10-31T06:43:58;99052.39;;;7.42;86.57
69127;BME280;56688;50.234;19.292;2022-10-31T06:46:47;99057.23;;;7.92;86.13
69127;BME280;56688;50.234;19.292;2022-10-31T06:49:29;99055.80;;;8.42;84.87
69127;BME280;56688;50.234;19.292;2022-10-31T06:52:00;99055.94;;;8.72;82.64
69127;BME280;56688;50.234;19.292;2022-10-31T06:54:28;99054.89;;;8.89;81.79
69127;BME280;56688;50.234;19.292;2022-10-31T06:56:55;99055.75;;;9.12;81.19
69127;BME280;56688;50.234;19.292;2022-10-31T06:59:22;99058.80;;;9.37;80.14
69127;BME280;56688;50.234;19.292;2022-10-31T07:02:09;99054.57;;;9.68;80.51
69127;BME280;56688;50.234;19.292;2022-10-31T07:04:38;99059.13;;;10.19;79.71
69127;BME280;56688;50.234;19.292;2022-10-31T07:07:05;99056.66;;;10.75;78.06
69127;BME280;56688;50.234;19.292;2022-10-31T07:09:31;99056.27;;;11.32;76.43
69127;BME280;56688;50.234;19.292;2022-10-31T07:12:01;99062.45;;;11.91;75.21
69127;BME280;56688;50.234;19.292;2022-10-31T07:14:28;99063.60;;;12.50;73.31
69127;BME280;56688;50.234;19.292;2022-10-31T07:16:55;99059.01;;;13.05;71.88
69127;BME280;56688;50.234;19.292;2022-10-31T07:19:25;99067.62;;;13.56;70.25
69127;BME280;56688;50.234;19.292;2022-10-31T07:21:52;99063.73;;;14.00;69.01
69127;BME280;56688;50.234;19.292;2022-10-31T07:24:19;99067.39;;;14.37;67.82
69127;BME280;56688;50.234;19.292;2022-10-31T07:27:02;99069.28;;;14.72;66.54
69127;BME280;56688;50.234;19.292;2022-10-31T07:29:29;99069.00;;;14.99;65.43
69127;BME280;56688;50.234;19.292;2022-10-31T07:31:55;99065.54;;;15.25;65.03
69127;BME280;56688;50.234;19.292;2022-10-31T07:34:24;99068.70;;;15.56;64.34
69127;BME280;56688;50.234;19.292;2022-10-31T07:37:07;99071.23;;;15.97;63.74
69127;BME280;56688;50.234;19.292;2022-10-31T07:39:35;99072.82;;;16.35;62.85
69127;BME280;56688;50.234;19.292;2022-10-31T07:42:02;99073.68;;;16.68;61.96
69127;BME280;56688;50.234;19.292;2022-10-31T07:44:30;99074.11;;;16.96;61.10
69127;BME280;56688;50.234;19.292;2022-10-31T07:47:12;99070.28;;;17.22;60.90
69127;BME280;56688;50.234;19.292;2022-10-31T07:49:54;99069.50;;;17.46;60.56
69127;BME280;56688;50.234;19.292;2022-10-31T07:52:37;99073.00;;;17.68;60.54
69127;BME280;56688;50.234;19.292;2022-10-31T07:55:19;99073.76;;;17.84;60.17
69127;BME280;56688;50.234;19.292;2022-10-31T07:57:55;99072.48;;;18.02;59.48
69127;BME280;56688;50.234;19.292;2022-10-31T08:00:22;99063.17;;;18.09;58.54
69127;BME280;56688;50.234;19.292;2022-10-31T08:02:57;99065.25;;;18.25;57.73
69127;BME280;56688;50.234;19.292;2022-10-31T08:05:40;99068.51;;;18.51;57.20
69127;BME280;56688;50.234;19.292;2022-10-31T08:08:22;99066.32;;;18.86;56.18
69127;BME280;56688;50.234;19.292;2022-10-31T08:10:50;99067.41;;;19.17;54.85
69127;BME280;56688;50.234;19.292;2022-10-31T08:13:17;99068.17;;;19.50;54.09
69127;BME280;56688;50.234;19.292;2022-10-31T08:15:45;99066.05;;;19.85;52.55
69127;BME280;56688;50.234;19.292;2022-10-31T08:18:17;99067.86;;;20.22;52.33
69127;BME280;56688;50.234;19.292;2022-10-31T08:20:44;99066.66;;;20.62;51.82
69127;BME280;56688;50.234;19.292;2022-10-31T08:23:12;99067.11;;;20.95;50.41
69127;BME280;56688;50.234;19.292;2022-10-31T08:25:40;99064.48;;;21.16;49.58
69127;BME280;56688;50.234;19.292;2022-10-31T08:28:10;99063.23;;;21.35;48.83
69127;BME280;56688;50.234;19.292;2022-10-31T08:30:39;99058.74;;;21.53;47.94
69127;BME280;56688;50.234;19.292;2022-10-31T08:33:21;99059.86;;;21.77;47.16
69127;BME280;56688;50.234;19.292;2022-10-31T08:36:04;99060.19;;;21.98;46.99
69127;BME280;56688;50.234;19.292;2022-10-31T08:38:50;99057.95;;;22.29;47.02
69127;BME280;56688;50.234;19.292;2022-10-31T08:41:17;99060.89;;;22.57;45.55
69127;BME280;56688;50.234;19.292;2022-10-31T08:43:44;99058.09;;;22.72;44.95
69127;BME280;56688;50.234;19.292;2022-10-31T08:46:11;99057.17;;;22.94;44.27
69127;BME280;56688;50.234;19.292;2022-10-31T08:48:38;99053.04;;;23.03;44.20
69127;BME280;56688;50.234;19.292;2022-10-31T08:51:06;99052.41;;;22.91;44.03
69127;BME280;56688;50.234;19.292;2022-10-31T08:53:33;99058.91;;;22.88;44.67
69127;BME280;56688;50.234;19.292;2022-10-31T08:56:20;99055.93;;;22.86;45.06
69127;BME280;56688;50.234;19.292;2022-10-31T08:58:46;99055.76;;;22.73;44.73
69127;BME280;56688;50.234;19.292;2022-10-31T09:01:14;99056.77;;;22.54;45.06
69127;BME280;56688;50.234;19.292;2022-10-31T09:03:42;99062.11;;;22.38;45.50
69127;BME280;56688;50.234;19.292;2022-10-31T09:06:09;99055.63;;;22.26;45.55
69127;BME280;56688;50.234;19.292;2022-10-31T09:08:36;99063.63;;;22.08;45.98
69127;BME280;56688;50.234;19.292;2022-10-31T09:11:04;99058.31;;;21.96;46.26
69127;BME280;56688;50.234;19.292;2022-10-31T09:13:52;99062.52;;;21.84;46.69
69127;BME280;56688;50.234;19.292;2022-10-31T09:16:34;99065.39;;;21.69;47.51
69127;BME280;56688;50.234;19.292;2022-10-31T09:19:01;99065.25;;;21.68;48.56
69127;BME280;56688;50.234;19.292;2022-10-31T09:21:34;99064.37;;;21.67;48.34
69127;BME280;56688;50.234;19.292;2022-10-31T09:24:01;99067.05;;;21.68;48.87
69127;BME280;56688;50.234;19.292;2022-10-31T09:26:27;99066.35;;;21.64;48.02
69127;BME280;56688;50.234;19.292;2022-10-31T09:29:03;99070.52;;;21.57;47.71
69127;BME280;56688;50.234;19.292;2022-10-31T09:31:30;99072.92;;;21.48;48.36
69127;BME280;56688;50.234;19.292;2022-10-31T09:34:02;99067.48;;;21.45;49.18
69127;BME280;56688;50.234;19.292;2022-10-31T09:36:32;99067.16;;;21.48;49.69
69127;BME280;56688;50.234;19.292;2022-10-31T09:39:14;99065.03;;;21.51;49.18
69127;BME280;56688;50.234;19.292;2022-10-31T09:42:01;99062.69;;;21.51;49.33
69127;BME280;56688;50.234;19.292;2022-10-31T09:44:51;99063.36;;;21.55;50.40
69127;BME280;56688;50.234;19.292;2022-10-31T09:50:17;99066.04;;;21.54;49.37
69127;BME280;56688;50.234;19.292;2022-10-31T09:52:54;99067.92;;;21.55;49.07
69127;BME280;56688;50.234;19.292;2022-10-31T09:55:36;99063.47;;;21.46;49.19
69127;BME280;56688;50.234;19.292;2022-10-31T09:58:05;99061.34;;;21.46;50.14
69127;BME280;56688;50.234;19.292;2022-10-31T10:00:32;99063.72;;;21.45;50.84
69127;BME280;56688;50.234;19.292;2022-10-31T10:05:53;99064.88;;;21.47;50.36
69127;BME280;56688;50.234;19.292;2022-10-31T10:08:31;99064.05;;;21.42;50.09
69127;BME280;56688;50.234;19.292;2022-10-31T10:17:09;99062.19;;;21.32;51.06
69127;BME280;56688;50.234;19.292;2022-10-31T10:22:35;99059.86;;;21.48;51.32
69127;BME280;56688;50.234;19.292;2022-10-31T10:25:16;99056.66;;;21.48;50.38
69127;BME280;56688;50.234;19.292;2022-10-31T10:30:40;99051.77;;;21.71;49.98
69127;BME280;56688;50.234;19.292;2022-10-31T10:33:11;99054.53;;;21.67;49.22
69127;BME280;56688;50.234;19.292;2022-10-31T10:35:47;99053.27;;;21.59;49.49
69127;BME280;56688;50.234;19.292;2022-10-31T10:40:46;99048.63;;;21.59;49.91
69127;BME280;56688;50.234;19.292;2022-10-31T10:43:36;99047.66;;;21.69;50.30
69127;BME280;56688;50.234;19.292;2022-10-31T11:02:51;99033.36;;;22.38;46.44
69127;BME280;56688;50.234;19.292;2022-10-31T11:05:23;99035.69;;;22.40;45.18
69127;BME280;56688;50.234;19.292;2022-10-31T11:07:51;99038.52;;;22.40;45.32
69127;BME280;56688;50.234;19.292;2022-10-31T11:10:18;99034.09;;;22.47;46.23
69127;BME280;56688;50.234;19.292;2022-10-31T11:12:59;99033.30;;;22.67;45.62
69127;BME280;56688;50.234;19.292;2022-10-31T11:15:28;99025.98;;;22.87;44.81
69127;BME280;56688;50.234;19.292;2022-10-31T11:17:57;99026.85;;;23.01;45.28
69127;BME280;56688;50.234;19.292;2022-10-31T11:20:28;99024.11;;;23.26;45.11
69127;BME280;56688;50.234;19.292;2022-10-31T11:23:02;99017.10;;;23.54;44.64
69127;BME280;56688;50.234;19.292;2022-10-31T11:25:30;99017.35;;;23.82;43.65
69127;BME280;56688;50.234;19.292;2022-10-31T11:28:02;99015.48;;;24.05;42.20
69127;BME280;56688;50.234;19.292;2022-10-31T11:30:35;99019.05;;;24.18;42.61
69127;BME280;56688;50.234;19.292;2022-10-31T11:33:03;99016.97;;;24.40;41.91
69127;BME280;56688;50.234;19.292;2022-10-31T11:35:30;99014.31;;;24.45;41.04
69127;BME280;56688;50.234;19.292;2022-10-31T11:37:58;99010.70;;;24.45;41.36
69127;BME280;56688;50.234;19.292;2022-10-31T11:40:27;99012.04;;;24.62;41.39
69127;BME280;56688;50.234;19.292;2022-10-31T11:42:57;99010.17;;;24.75;40.73
69127;BME280;56688;50.234;19.292;2022-10-31T11:47:53;99006.73;;;25.10;40.32
69127;BME280;56688;50.234;19.292;2022-10-31T11:50:34;99005.40;;;25.28;40.52
69127;BME280;56688;50.234;19.292;2022-10-31T11:53:02;99004.69;;;25.40;40.02
69127;BME280;56688;50.234;19.292;2022-10-31T11:55:34;98997.86;;;25.49;39.44
69127;BME280;56688;50.234;19.292;2022-10-31T11:58:01;98997.36;;;25.59;39.55
69127;BME280;56688;50.234;19.292;2022-10-31T12:06:01;98991.61;;;25.68;39.66
69127;BME280;56688;50.234;19.292;2022-10-31T12:08:31;98990.35;;;25.92;39.50
69127;BME280;56688;50.234;19.292;2022-10-31T12:13:45;98987.64;;;26.63;37.56
69127;BME280;56688;50.234;19.292;2022-10-31T12:16:26;98984.67;;;27.03;37.35
69127;BME280;56688;50.234;19.292;2022-10-31T12:19:00;98982.31;;;27.50;36.86
69127;BME280;56688;50.234;19.292;2022-10-31T12:29:51;98977.13;;;28.56;33.37
69127;BME280;56688;50.234;19.292;2022-10-31T12:32:41;98976.23;;;28.69;33.24
69127;BME280;56688;50.234;19.292;2022-10-31T12:41:22;98969.88;;;28.71;32.77
69127;BME280;56688;50.234;19.292;2022-10-31T12:43:58;98970.39;;;28.87;33.10
69127;BME280;56688;50.234;19.292;2022-10-31T12:59:56;98946.75;;;30.03;30.66
69127;BME280;56688;50.234;19.292;2022-10-31T13:02:29;98948.94;;;30.10;31.07
69127;BME280;56688;50.234;19.292;2022-10-31T13:05:04;98945.75;;;30.33;32.24
69127;BME280;56688;50.234;19.292;2022-10-31T13:07:36;98943.64;;;30.51;30.58
69127;BME280;56688;50.234;19.292;2022-10-31T13:12:33;98939.20;;;30.49;30.57
69127;BME280;56688;50.234;19.292;2022-10-31T13:15:23;98940.69;;;30.68;30.16
69127;BME280;56688;50.234;19.292;2022-10-31T13:17:55;98940.11;;;30.83;29.75
69127;BME280;56688;50.234;19.292;2022-10-31T13:20:27;98938.30;;;30.88;30.41
69127;BME280;56688;50.234;19.292;2022-10-31T13:23:17;98939.78;;;30.75;29.57
69127;BME280;56688;50.234;19.292;2022-10-31T13:26:12;98935.91;;;30.47;29.00
69127;BME280;56688;50.234;19.292;2022-10-31T13:28:50;98937.19;;;30.28;29.54
69127;BME280;56688;50.234;19.292;2022-10-31T13:31:20;98937.47;;;30.33;32.76
69127;BME280;56688;50.234;19.292;2022-10-31T13:33:50;98936.25;;;30.40;32.12
69127;BME280;56688;50.234;19.292;2022-10-31T13:36:21;98932.84;;;30.51;31.66
69127;BME280;56688;50.234;19.292;2022-10-31T13:38:52;98933.87;;;30.60;31.17
69127;BME280;56688;50.234;19.292;2022-10-31T13:44:10;98931.13;;;30.68;31.02
69127;BME280;56688;50.234;19.292;2022-10-31T13:46:40;98934.27;;;30.67;30.85
69127;BME280;56688;50.234;19.292;2022-10-31T14:02:46;98929.89;;;30.24;30.92
69127;BME280;56688;50.234;19.292;2022-10-31T14:05:24;98931.23;;;30.09;31.40
69127;BME280;56688;50.234;19.292;2022-10-31T14:07:54;98927.65;;;29.96;31.31
69127;BME280;56688;50.234;19.292;2022-10-31T14:10:35;98927.08;;;29.82;31.58
69127;BME280;56688;50.234;19.292;2022-10-31T14:13:07;98928.73;;;29.68;32.45
69127;BME280;56688;50.234;19.292;2022-10-31T14:15:37;98927.98;;;29.47;32.99
69127;BME280;56688;50.234;19.292;2022-10-31T14:18:21;98930.17;;;29.14;33.23
69127;BME280;56688;50.234;19.292;2022-10-31T14:20:50;98926.60;;;28.88;34.09
69127;BME280;56688;50.234;19.292;2022-10-31T14:23:34;98931.21;;;28.65;34.42
69127;BME280;56688;50.234;19.292;2022-10-31T14:28:46;98923.27;;;28.03;35.96
69127;BME280;56688;50.234;19.292;2022-10-31T14:31:30;98924.13;;;27.68;36.36
69127;BME280;56688;50.234;19.292;2022-10-31T14:34:01;98921.66;;;27.10;37.22
69127;BME280;56688;50.234;19.292;2022-10-31T14:36:41;98921.38;;;26.48;38.15
69127;BME280;56688;50.234;19.292;2022-10-31T14:39:26;98921.94;;;25.77;39.97
69127;BME280;56688;50.234;19.292;2022-10-31T14:50:21;98917.01;;;23.32;44.69
69127;BME280;56688;50.234;19.292;2022-10-31T14:52:54;98917.19;;;22.79;45.64
69127;BME280;56688;50.234;19.292;2022-10-31T14:55:23;98913.67;;;22.29;46.98
69127;BME280;56688;50.234;19.292;2022-10-31T14:58:02;98915.75;;;21.80;47.94
69127;BME280;56688;50.234;19.292;2022-10-31T15:00:32;98915.36;;;21.30;48.97
69127;BME280;56688;50.234;19.292;2022-10-31T15:05:47;98920.20;;;20.39;51.13
69127;BME280;56688;50.234;19.292;2022-10-31T15:08:32;98920.85;;;19.97;52.34
69127;BME280;56688;50.234;19.292;2022-10-31T15:11:03;98916.10;;;19.53;52.90
69127;BME280;56688;50.234;19.292;2022-10-31T15:13:45;98916.08;;;19.13;54.02
69127;BME280;56688;50.234;19.292;2022-10-31T15:16:14;98915.89;;;18.74;54.80
69127;BME280;56688;50.234;19.292;2022-10-31T15:18:48;98920.29;;;18.37;55.49
69127;BME280;56688;50.234;19.292;2022-10-31T15:21:17;98921.28;;;18.00;56.73
69127;BME280;56688;50.234;19.292;2022-10-31T15:23:47;98923.76;;;17.66;57.57
69127;BME280;56688;50.234;19.292;2022-10-31T15:26:19;98920.98;;;17.33;58.86
69127;BME280;56688;50.234;19.292;2022-10-31T15:29:03;98919.77;;;17.00;59.36
69127;BME280;56688;50.234;19.292;2022-10-31T15:31:30;98920.73;;;16.67;60.22